createdAt,value
2023-03-27T00:02:06.176Z,6.10
2023-03-27T00:04:32.846Z,6.10
2023-03-27T00:06:59.638Z,6.10
2023-03-27T00:09:28.408Z,6.10
2023-03-27T00:11:56.314Z,6.20
2023-03-27T00:14:24.032Z,6.30
2023-03-27T00:16:51.171Z,6.40
2023-03-27T00:19:19.015Z,6.40
2023-03-27T00:21:45.782Z,6.40
2023-03-27T00:24:12.559Z,6.50
2023-03-27T00:26:40.792Z,6.50
2023-03-27T00:29:07.716Z,6.50
2023-03-27T00:31:34.642Z,6.50
2023-03-27T00:34:01.841Z,6.50
2023-03-27T00:36:28.592Z,6.40
2023-03-27T00:38:55.402Z,6.40
2023-03-27T00:41:23.332Z,6.30
2023-03-27T00:43:53.359Z,6.20
2023-03-27T00:46:40.391Z,6.20
2023-03-27T00:49:11.131Z,6.20
2023-03-27T00:51:41.135Z,6.20
2023-03-27T00:54:09.819Z,6.20
2023-03-27T00:56:38.638Z,6.10
2023-03-27T00:59:11.536Z,6.10
2023-03-27T01:01:40.123Z,6.10
2023-03-27T01:04:08.947Z,6.10
2023-03-27T01:06:36.886Z,6.00
2023-03-27T01:09:04.675Z,6.00
2023-03-27T01:11:59.355Z,5.90
2023-03-27T01:14:50.612Z,6.00
2023-03-27T01:17:41.658Z,5.90
2023-03-27T01:20:38.238Z,5.80
2023-03-27T01:24:00.769Z,5.90
2023-03-27T01:26:39.143Z,5.80
2023-03-27T01:29:35.387Z,5.80
2023-03-27T01:32:26.561Z,5.70
2023-03-27T01:35:20.116Z,5.70
2023-03-27T01:38:04.636Z,5.80
2023-03-27T01:40:50.327Z,5.80
2023-03-27T01:43:23.954Z,5.80
2023-03-27T01:46:02.428Z,5.80
2023-03-27T01:48:34.645Z,5.90
2023-03-27T01:51:08.026Z,6.00
2023-03-27T01:53:39.749Z,6.00
2023-03-27T01:56:32.443Z,5.90
2023-03-27T01:59:06.750Z,5.90
2023-03-27T02:01:37.942Z,5.90
2023-03-27T02:04:10.791Z,5.90
2023-03-27T02:06:50.758Z,5.90
2023-03-27T02:09:23.804Z,5.90
2023-03-27T02:11:56.807Z,5.80
2023-03-27T02:14:29.139Z,5.80
2023-03-27T02:16:59.790Z,5.80
2023-03-27T02:19:34.303Z,5.80
2023-03-27T02:22:01.353Z,5.80
2023-03-27T02:24:28.754Z,5.80
2023-03-27T02:27:12.765Z,5.70
2023-03-27T02:29:47.642Z,5.60
2023-03-27T02:32:20.153Z,5.60
2023-03-27T02:35:08.164Z,5.60
2023-03-27T02:37:34.808Z,5.70
2023-03-27T02:40:30.592Z,5.60
2023-03-27T02:43:12.892Z,5.60
2023-03-27T02:45:56.480Z,5.50
2023-03-27T02:48:34.270Z,5.60
2023-03-27T02:51:08.290Z,5.50
2023-03-27T02:53:47.314Z,5.50
2023-03-27T02:56:16.555Z,5.60
2023-03-27T02:58:50.465Z,5.50
2023-03-27T03:01:20.097Z,5.50
2023-03-27T03:03:55.208Z,5.50
2023-03-27T03:06:29.761Z,5.40
2023-03-27T03:09:02.040Z,5.40
2023-03-27T03:11:29.878Z,5.40
2023-03-27T03:13:57.132Z,5.30
2023-03-27T03:16:23.827Z,5.30
2023-03-27T03:18:50.935Z,5.20
2023-03-27T03:21:17.702Z,5.20
2023-03-27T03:23:58.316Z,5.20
2023-03-27T03:26:26.929Z,5.10
2023-03-27T03:29:00.613Z,5.10
2023-03-27T03:31:42.797Z,5.10
2023-03-27T03:34:16.227Z,5.00
2023-03-27T03:36:44.835Z,5.00
2023-03-27T03:39:12.545Z,5.00
2023-03-27T03:41:39.443Z,5.00
2023-03-27T03:44:06.299Z,5.00
2023-03-27T03:46:33.202Z,5.00
2023-03-27T03:49:00.667Z,5.00
2023-03-27T03:51:28.318Z,5.00
2023-03-27T03:53:54.994Z,5.00
2023-03-27T03:56:21.723Z,5.00
2023-03-27T03:58:48.378Z,5.00
2023-03-27T04:01:15.059Z,5.00
2023-03-27T04:03:42.075Z,5.00
2023-03-27T04:06:10.880Z,5.00
2023-03-27T04:08:37.831Z,5.00
2023-03-27T04:11:05.256Z,5.10
2023-03-27T04:13:32.697Z,5.10
2023-03-27T04:16:01.719Z,5.10
2023-03-27T04:18:35.452Z,5.10
2023-03-27T04:21:02.363Z,5.10
2023-03-27T04:23:31.694Z,5.10
2023-03-27T04:26:04.042Z,5.10
2023-03-27T04:28:34.473Z,5.10
2023-03-27T04:31:06.167Z,5.00
2023-03-27T04:33:46.325Z,5.00
2023-03-27T04:36:16.428Z,4.90
2023-03-27T04:38:43.145Z,4.90
2023-03-27T04:41:10.179Z,4.90
2023-03-27T04:43:36.983Z,4.90
2023-03-27T04:46:06.391Z,4.80
2023-03-27T04:48:33.362Z,4.70
2023-03-27T04:51:00.058Z,4.60
2023-03-27T04:53:30.130Z,4.60
2023-03-27T04:55:57.465Z,4.60
2023-03-27T04:58:26.032Z,4.60
2023-03-27T05:00:55.658Z,4.60
2023-03-27T05:03:27.771Z,4.60
2023-03-27T05:05:54.778Z,4.70
2023-03-27T05:08:21.481Z,4.80
2023-03-27T05:10:48.145Z,4.90
2023-03-27T05:13:15.337Z,4.90
2023-03-27T05:15:42.107Z,4.90
2023-03-27T05:18:09.101Z,4.90
2023-03-27T05:20:36.570Z,4.90
2023-03-27T05:23:03.231Z,4.80
2023-03-27T05:25:30.918Z,4.80
2023-03-27T05:27:58.081Z,4.80
2023-03-27T05:30:26.784Z,4.70
2023-03-27T05:32:53.930Z,4.70
2023-03-27T05:35:23.662Z,4.70
2023-03-27T05:37:52.833Z,4.60
2023-03-27T05:40:22.357Z,4.60
2023-03-27T05:42:50.346Z,4.60
2023-03-27T05:45:17.292Z,4.60
2023-03-27T05:47:55.361Z,4.50
2023-03-27T05:50:28.296Z,4.50
2023-03-27T05:52:59.950Z,4.50
2023-03-27T05:55:27.951Z,4.50
2023-03-27T05:57:55.147Z,4.50
2023-03-27T06:00:25.733Z,4.50
2023-03-27T06:02:57.387Z,4.50
2023-03-27T06:05:26.557Z,4.50
2023-03-27T06:07:53.234Z,4.60
2023-03-27T06:10:20.662Z,4.60
2023-03-27T06:12:50.764Z,4.70
2023-03-27T06:15:17.430Z,4.70
2023-03-27T06:17:46.848Z,4.80
2023-03-27T06:20:15.371Z,4.90
2023-03-27T06:22:47.297Z,5.00
2023-03-27T06:25:14.966Z,5.00
2023-03-27T06:27:46.530Z,5.00
2023-03-27T06:30:17.245Z,5.10
2023-03-27T06:32:45.186Z,5.20
2023-03-27T06:35:14.558Z,5.30
2023-03-27T06:37:42.443Z,5.50
2023-03-27T06:40:10.279Z,5.60
2023-03-27T06:42:38.153Z,5.60
2023-03-27T06:45:05.762Z,5.60
2023-03-27T06:47:34.590Z,5.60
2023-03-27T06:50:06.584Z,5.70
2023-03-27T06:52:33.248Z,5.70
2023-03-27T06:54:59.905Z,5.70
2023-03-27T06:57:26.528Z,5.70
2023-03-27T06:59:53.427Z,5.60
2023-03-27T07:02:20.068Z,5.70
2023-03-27T07:04:57.709Z,5.80
2023-03-27T07:07:30.819Z,5.90
2023-03-27T07:09:57.513Z,6.00
2023-03-27T07:12:24.294Z,6.10
2023-03-27T07:14:51.429Z,6.00
2023-03-27T07:17:18.581Z,6.20
2023-03-27T07:19:46.254Z,6.50
2023-03-27T07:22:12.973Z,6.70
2023-03-27T07:24:40.701Z,7.10
2023-03-27T07:27:07.823Z,7.30
2023-03-27T07:29:36.097Z,7.30
2023-03-27T07:32:07.209Z,7.40
2023-03-27T07:34:35.905Z,7.50
2023-03-27T07:37:02.592Z,7.40
2023-03-27T07:39:29.236Z,7.40
2023-03-27T07:41:55.946Z,7.40
2023-03-27T07:44:22.666Z,7.50
2023-03-27T07:46:51.989Z,7.60
2023-03-27T07:49:19.144Z,7.70
2023-03-27T07:51:46.732Z,7.90
2023-03-27T07:54:13.399Z,8.00
2023-03-27T07:56:40.853Z,8.30
2023-03-27T07:59:07.746Z,8.50
2023-03-27T08:01:34.908Z,8.60
2023-03-27T08:04:01.626Z,8.70
2023-03-27T08:06:28.407Z,8.70
2023-03-27T08:08:55.968Z,8.70
2023-03-27T08:11:30.318Z,8.80
2023-03-27T08:13:58.489Z,8.60
2023-03-27T08:16:28.882Z,8.20
2023-03-27T08:18:56.254Z,8.10
2023-03-27T08:21:23.820Z,8.20
2023-03-27T08:23:50.624Z,8.30
2023-03-27T08:26:18.104Z,8.40
2023-03-27T08:28:44.955Z,8.30
2023-03-27T08:31:14.322Z,8.50
2023-03-27T08:33:42.003Z,8.70
2023-03-27T08:36:11.377Z,9.00
2023-03-27T08:38:39.421Z,9.20
2023-03-27T08:41:07.556Z,9.40
2023-03-27T08:43:38.943Z,9.60
2023-03-27T08:46:22.595Z,9.90
2023-03-27T08:49:03.891Z,9.90
2023-03-27T08:51:35.953Z,10.00
2023-03-27T08:54:12.695Z,9.90
2023-03-27T08:56:39.456Z,10.20
2023-03-27T08:59:15.002Z,10.10
2023-03-27T09:02:01.495Z,10.10
2023-03-27T09:04:56.413Z,10.40
2023-03-27T09:07:39.137Z,10.50
2023-03-27T09:10:24.437Z,10.50
2023-03-27T09:13:11.168Z,10.90
2023-03-27T09:16:04.388Z,11.00
2023-03-27T09:18:36.277Z,10.50
2023-03-27T09:21:10.611Z,10.30
2023-03-27T09:23:45.257Z,9.20
2023-03-27T09:26:15.141Z,8.40
2023-03-27T09:28:51.408Z,8.00
2023-03-27T09:31:29.007Z,7.60
2023-03-27T09:33:57.887Z,7.40
2023-03-27T09:36:24.896Z,7.20
2023-03-27T09:39:01.991Z,7.20
2023-03-27T09:41:41.675Z,7.30
2023-03-27T09:44:28.792Z,7.50
2023-03-27T09:47:06.628Z,8.10
2023-03-27T09:49:34.709Z,8.50
2023-03-27T09:52:02.745Z,8.80
2023-03-27T09:54:29.743Z,8.90
2023-03-27T09:57:03.365Z,9.40
2023-03-27T09:59:41.900Z,9.90
2023-03-27T10:02:22.438Z,10.20
2023-03-27T10:05:02.412Z,10.30
2023-03-27T10:07:29.072Z,10.60
2023-03-27T10:10:08.673Z,10.40
2023-03-27T10:12:36.550Z,10.70
2023-03-27T10:15:28.018Z,10.90
2023-03-27T10:17:55.238Z,10.90
2023-03-27T10:20:22.278Z,11.20
2023-03-27T10:23:07.492Z,11.50
2023-03-27T10:25:38.945Z,11.40
2023-03-27T10:28:44.972Z,11.00
2023-03-27T10:31:28.468Z,10.70
2023-03-27T10:33:56.965Z,10.30
2023-03-27T10:36:25.195Z,10.40
2023-03-27T10:39:02.028Z,10.20
2023-03-27T10:41:29.387Z,10.00
2023-03-27T10:43:57.635Z,9.80
2023-03-27T10:46:27.122Z,9.60
2023-03-27T10:49:03.843Z,9.70
2023-03-27T10:51:53.666Z,9.60
2023-03-27T10:54:41.753Z,9.70
2023-03-27T10:57:23.331Z,9.60
2023-03-27T10:59:59.311Z,9.40
2023-03-27T11:02:35.934Z,9.70
2023-03-27T11:05:09.849Z,9.80
2023-03-27T11:07:45.594Z,9.60
2023-03-27T11:10:35.682Z,9.40
2023-03-27T11:13:14.864Z,9.30
2023-03-27T11:15:48.161Z,9.90
2023-03-27T11:18:25.830Z,10.20
2023-03-27T11:20:59.475Z,10.00
2023-03-27T11:23:38.412Z,9.60
2023-03-27T11:26:06.977Z,9.20
2023-03-27T11:28:52.885Z,9.30
2023-03-27T11:31:34.799Z,9.60
2023-03-27T11:34:06.062Z,9.60
2023-03-27T11:36:42.119Z,9.90
2023-03-27T11:39:23.653Z,9.80
2023-03-27T11:41:59.204Z,9.40
2023-03-27T11:44:28.749Z,9.20
2023-03-27T11:47:19.588Z,9.40
2023-03-27T11:49:51.715Z,9.60
2023-03-27T11:52:44.303Z,9.50
2023-03-27T11:55:30.264Z,9.50
2023-03-27T11:58:08.137Z,10.00
2023-03-27T12:01:12.564Z,10.20
2023-03-27T12:04:11.205Z,10.20
2023-03-27T12:06:50.952Z,10.00
2023-03-27T12:09:23.335Z,9.90
2023-03-27T12:12:00.098Z,9.80
2023-03-27T12:15:05.013Z,9.80
2023-03-27T12:17:55.767Z,9.60
2023-03-27T12:20:33.202Z,9.00
2023-03-27T12:23:08.833Z,8.50
2023-03-27T12:25:57.307Z,8.10
2023-03-27T12:29:02.048Z,7.80
2023-03-27T12:31:41.737Z,7.70
2023-03-27T12:34:40.033Z,7.40
2023-03-27T12:37:12.189Z,7.50
2023-03-27T12:39:56.543Z,7.60
2023-03-27T12:42:55.042Z,8.10
2023-03-27T12:45:24.626Z,8.80
2023-03-27T12:48:11.600Z,8.80
2023-03-27T12:50:44.430Z,8.90
2023-03-27T12:53:26.665Z,9.00
2023-03-27T12:56:19.378Z,8.90
2023-03-27T12:58:51.592Z,9.10
2023-03-27T13:01:51.572Z,9.60
2023-03-27T13:04:33.974Z,9.60
2023-03-27T13:07:19.358Z,9.70
2023-03-27T13:10:21.299Z,9.90
2023-03-27T13:13:04.499Z,10.10
2023-03-27T13:15:52.660Z,10.10
2023-03-27T13:18:53.670Z,10.10
2023-03-27T13:21:28.183Z,9.60
2023-03-27T13:24:30.629Z,9.40
2023-03-27T13:27:17.709Z,9.40
2023-03-27T13:29:50.252Z,9.30
2023-03-27T13:32:31.433Z,9.70
2023-03-27T13:35:27.208Z,10.30
2023-03-27T13:38:00.753Z,10.80
2023-03-27T13:40:28.908Z,11.00
2023-03-27T13:43:21.653Z,11.00
2023-03-27T13:46:19.036Z,10.80
2023-03-27T13:49:28.876Z,10.20
2023-03-27T13:52:24.882Z,9.70
2023-03-27T13:55:34.615Z,9.50
2023-03-27T13:58:22.169Z,9.40
2023-03-27T14:01:13.442Z,9.20
2023-03-27T14:04:18.840Z,9.10
2023-03-27T14:06:59.659Z,8.90
2023-03-27T14:09:53.440Z,8.70
2023-03-27T14:12:23.338Z,8.70
2023-03-27T14:15:22.022Z,8.80
2023-03-27T14:18:06.933Z,8.90
2023-03-27T14:20:53.333Z,8.90
2023-03-27T14:23:32.409Z,9.10
2023-03-27T14:26:03.967Z,9.30
2023-03-27T14:28:58.963Z,9.60
2023-03-27T14:31:28.656Z,9.80
2023-03-27T14:34:02.772Z,9.70
2023-03-27T14:36:33.918Z,9.50
2023-03-27T14:39:02.368Z,9.30
2023-03-27T14:41:29.244Z,9.20
2023-03-27T14:44:03.318Z,9.30
2023-03-27T14:46:30.678Z,9.40
2023-03-27T14:49:00.013Z,9.40
2023-03-27T14:51:41.880Z,9.50
2023-03-27T14:54:14.140Z,9.60
2023-03-27T14:56:47.595Z,9.70
2023-03-27T14:59:22.410Z,9.50
2023-03-27T15:01:50.648Z,9.30
2023-03-27T15:04:18.295Z,9.10
2023-03-27T15:06:45.103Z,9.10
2023-03-27T15:09:19.000Z,9.30
2023-03-27T15:11:54.740Z,9.30
2023-03-27T15:14:29.521Z,9.40
2023-03-27T15:17:01.368Z,9.50
2023-03-27T15:19:30.113Z,9.60
2023-03-27T15:22:05.308Z,9.50
2023-03-27T15:24:38.448Z,9.30
2023-03-27T15:27:05.950Z,9.20
2023-03-27T15:29:47.628Z,9.10
2023-03-27T15:32:19.099Z,9.10
2023-03-27T15:34:51.197Z,9.30
2023-03-27T15:37:25.356Z,9.50
2023-03-27T15:40:10.172Z,9.40
2023-03-27T15:42:47.487Z,9.40
2023-03-27T15:45:21.296Z,9.40
2023-03-27T15:48:06.488Z,9.10
2023-03-27T15:50:34.103Z,9.20
2023-03-27T15:53:02.283Z,9.10
2023-03-27T15:55:42.354Z,8.90
2023-03-27T15:58:26.702Z,8.80
2023-03-27T16:01:02.177Z,8.70
2023-03-27T16:03:34.198Z,8.60
2023-03-27T16:06:02.847Z,8.50
2023-03-27T16:08:36.460Z,8.40
2023-03-27T16:11:06.211Z,8.50
2023-03-27T16:13:56.474Z,8.60
2023-03-27T16:16:29.461Z,8.60
2023-03-27T16:19:01.408Z,8.60
2023-03-27T16:21:28.401Z,8.50
2023-03-27T16:23:56.180Z,8.50
2023-03-27T16:26:28.127Z,8.50
2023-03-27T16:28:57.628Z,8.50
2023-03-27T16:31:24.331Z,8.30
2023-03-27T16:33:51.239Z,8.40
2023-03-27T16:36:32.438Z,8.40
2023-03-27T16:38:59.058Z,8.40
2023-03-27T16:41:25.710Z,8.40
2023-03-27T16:43:52.360Z,8.50
2023-03-27T16:46:23.020Z,8.50
2023-03-27T16:48:51.800Z,8.50
2023-03-27T16:51:19.413Z,8.50
2023-03-27T16:53:46.344Z,8.60
2023-03-27T16:56:13.020Z,8.50
2023-03-27T16:58:40.205Z,8.50
2023-03-27T17:01:08.699Z,8.60
2023-03-27T17:03:37.122Z,8.50
2023-03-27T17:06:06.489Z,8.20
2023-03-27T17:08:33.201Z,8.00
2023-03-27T17:11:08.861Z,7.80
2023-03-27T17:13:36.858Z,7.60
2023-03-27T17:16:04.959Z,7.40
2023-03-27T17:18:31.608Z,7.40
2023-03-27T17:20:58.345Z,7.40
2023-03-27T17:23:25.226Z,7.30
2023-03-27T17:25:51.880Z,7.40
2023-03-27T17:28:18.601Z,7.30
2023-03-27T17:30:56.573Z,7.40
2023-03-27T17:33:28.506Z,7.40
2023-03-27T17:35:57.043Z,7.50
2023-03-27T17:38:24.366Z,7.50
2023-03-27T17:40:51.758Z,7.50
2023-03-27T17:43:18.585Z,7.50
2023-03-27T17:45:45.393Z,7.50
2023-03-27T17:48:12.335Z,7.60
2023-03-27T17:50:39.517Z,7.60
2023-03-27T17:53:07.786Z,7.50
2023-03-27T17:55:37.391Z,7.50
2023-03-27T17:58:09.285Z,7.40
2023-03-27T18:00:38.480Z,7.20
2023-03-27T18:03:06.545Z,7.20
2023-03-27T18:05:38.140Z,7.20
2023-03-27T18:08:05.957Z,7.20
2023-03-27T18:10:34.742Z,7.10
2023-03-27T18:13:02.544Z,7.00
2023-03-27T18:15:29.373Z,6.90
2023-03-27T18:17:56.136Z,6.80
2023-03-27T18:20:22.848Z,6.80
2023-03-27T18:22:49.552Z,6.80
2023-03-27T18:25:16.271Z,6.80
2023-03-27T18:27:44.620Z,6.70
2023-03-27T18:30:13.623Z,6.70
2023-03-27T18:32:42.510Z,6.70
2023-03-27T18:35:12.884Z,6.70
2023-03-27T18:37:40.821Z,6.70
2023-03-27T18:40:09.446Z,6.70
2023-03-27T18:42:37.286Z,6.80
2023-03-27T18:45:06.619Z,6.80
2023-03-27T18:47:34.384Z,6.80
2023-03-27T18:50:01.256Z,6.90
2023-03-27T18:52:28.176Z,6.90
2023-03-27T18:54:54.826Z,6.80
2023-03-27T18:57:21.485Z,6.80
2023-03-27T18:59:49.823Z,6.80
2023-03-27T19:02:17.224Z,6.60
2023-03-27T19:04:45.312Z,6.40
2023-03-27T19:07:12.208Z,6.20
2023-03-27T19:09:41.733Z,6.20
2023-03-27T19:12:09.228Z,6.20
2023-03-27T19:14:36.933Z,6.20
2023-03-27T19:17:04.444Z,6.30
2023-03-27T19:19:32.114Z,6.40
2023-03-27T19:21:58.971Z,6.50
2023-03-27T19:24:25.794Z,6.50
2023-03-27T19:26:52.815Z,6.60
2023-03-27T19:29:19.660Z,6.60
2023-03-27T19:31:46.320Z,6.60
2023-03-27T19:34:12.998Z,6.50
2023-03-27T19:36:39.665Z,6.50
2023-03-27T19:39:07.045Z,6.50
2023-03-27T19:41:33.809Z,6.40
2023-03-27T19:44:00.722Z,6.40
2023-03-27T19:46:29.078Z,6.40
2023-03-27T19:48:56.139Z,6.30
2023-03-27T19:51:22.947Z,6.30
2023-03-27T19:53:49.710Z,6.20
2023-03-27T19:56:16.833Z,6.20
2023-03-27T19:58:43.486Z,6.10
2023-03-27T20:01:10.182Z,6.10
2023-03-27T20:03:38.308Z,6.00
2023-03-27T20:06:11.159Z,6.00
2023-03-27T20:08:40.090Z,5.90
2023-03-27T20:11:07.255Z,5.80
2023-03-27T20:13:42.524Z,5.80
2023-03-27T20:16:16.406Z,5.80
2023-03-27T20:18:43.560Z,5.70
2023-03-27T20:21:13.603Z,5.70
2023-03-27T20:23:41.795Z,5.70
2023-03-27T20:26:09.234Z,5.60
2023-03-27T20:28:36.113Z,5.60
2023-03-27T20:31:06.363Z,5.60
2023-03-27T20:33:33.305Z,5.40
2023-03-27T20:36:00.299Z,5.40
2023-03-27T20:38:30.678Z,5.30
2023-03-27T20:40:57.807Z,5.30
2023-03-27T20:43:27.098Z,5.20
2023-03-27T20:45:55.028Z,5.20
2023-03-27T20:48:22.209Z,5.20
2023-03-27T20:50:52.553Z,5.10
2023-03-27T20:53:26.169Z,5.10
2023-03-27T20:56:00.115Z,5.10
2023-03-27T20:58:28.111Z,5.10
2023-03-27T21:00:56.202Z,5.00
2023-03-27T21:03:23.267Z,5.00
2023-03-27T21:05:50.570Z,4.90
2023-03-27T21:08:17.294Z,4.90
2023-03-27T21:10:53.522Z,4.90
2023-03-27T21:13:20.575Z,4.80
2023-03-27T21:15:47.520Z,4.70
2023-03-27T21:18:14.164Z,4.70
2023-03-27T21:20:41.065Z,4.60
2023-03-27T21:23:07.688Z,4.50
2023-03-27T21:25:34.874Z,4.40
2023-03-27T21:28:01.930Z,4.40
2023-03-27T21:30:46.671Z,4.40
2023-03-27T21:33:18.042Z,4.30
2023-03-27T21:35:49.080Z,4.30
2023-03-27T21:38:17.120Z,4.20
2023-03-27T21:40:45.556Z,4.20
2023-03-27T21:43:13.085Z,4.20
2023-03-27T21:45:40.265Z,4.20
2023-03-27T21:48:07.253Z,4.20
2023-03-27T21:50:33.987Z,4.20
2023-03-27T21:53:00.616Z,4.10
2023-03-27T21:55:27.338Z,4.10
2023-03-27T21:57:53.953Z,4.10
2023-03-27T22:00:20.667Z,4.10
2023-03-27T22:02:47.326Z,4.00
2023-03-27T22:05:14.166Z,4.10
2023-03-27T22:07:40.943Z,4.10
2023-03-27T22:10:08.006Z,4.10
2023-03-27T22:12:36.072Z,4.10
2023-03-27T22:15:03.593Z,4.10
2023-03-27T22:17:30.484Z,4.10
2023-03-27T22:19:57.568Z,4.10
2023-03-27T22:22:24.935Z,4.10
2023-03-27T22:24:51.811Z,4.10
2023-03-27T22:27:18.425Z,4.10
2023-03-27T22:29:45.156Z,4.00
2023-03-27T22:32:11.830Z,4.00
2023-03-27T22:34:38.503Z,4.00
2023-03-27T22:37:06.557Z,4.00
2023-03-27T22:39:33.286Z,3.90
2023-03-27T22:41:59.938Z,3.90
2023-03-27T22:44:26.769Z,3.90
2023-03-27T22:46:53.446Z,3.90
2023-03-27T22:49:20.246Z,3.80
2023-03-27T22:51:46.925Z,3.90
2023-03-27T22:54:13.573Z,3.80
2023-03-27T22:56:40.250Z,3.80
2023-03-27T22:59:06.890Z,3.70
2023-03-27T23:01:33.585Z,3.70
2023-03-27T23:04:00.286Z,3.70
2023-03-27T23:06:26.919Z,3.70
2023-03-27T23:08:53.616Z,3.70
2023-03-27T23:11:20.616Z,3.60
2023-03-27T23:13:47.343Z,3.60
2023-03-27T23:16:14.506Z,3.50
2023-03-27T23:18:41.507Z,3.50
2023-03-27T23:21:14.100Z,3.50
2023-03-27T23:23:40.989Z,3.40
2023-03-27T23:26:08.457Z,3.40
2023-03-27T23:28:37.946Z,3.40
2023-03-27T23:31:07.047Z,3.40
2023-03-27T23:33:36.504Z,3.40
2023-03-27T23:36:09.629Z,3.40
2023-03-27T23:38:37.459Z,3.40
2023-03-27T23:41:06.979Z,3.30
2023-03-27T23:43:34.618Z,3.30
2023-03-27T23:46:02.182Z,3.30
2023-03-27T23:48:29.498Z,3.20
2023-03-27T23:50:56.941Z,3.20
2023-03-27T23:53:27.725Z,3.20
2023-03-27T23:55:58.857Z,3.10
2023-03-27T23:58:28.646Z,3.10
